METAR Data
IDs: Format: Raw Decoded Include TAF

Data at: 2144 UTC 20 Nov 2018

KGTU 202056Z 03008KT 10SM CLR 16/02 A3031 RMK AO2 SLP268 T01610022 56025
KGTU 201956Z 04008KT 10SM CLR 16/03 A3033 RMK AO2 SLP273 T01560028
KGTU 201856Z 01011KT 10SM CLR 15/03 A3034 RMK AO2 SLP279 T01500033
KGTU 201756Z 02007KT 340V040 10SM CLR 14/03 A3039 RMK AO2 SLP292 T01390033 10139 20028 58002
KGTU 201656Z 36007KT 10SM CLR 13/03 A3041 RMK AO2 SLP300 T01280033
KGTU 201556Z 02005KT 10SM CLR 11/03 A3041 RMK AO2 SLP299 T01060033
KGTU 201456Z 36008KT 10SM CLR 08/03 A3039 RMK AO2 SLP295 T00830033 52024
KGTU 201356Z 32006KT 10SM CLR 04/02 A3037 RMK AO2 SLP289 T00440017
KGTU 201256Z 32004KT 10SM CLR 03/01 A3034 RMK AO2 SLP280 T00280011
KGTU 201156Z AUTO 33006KT 10SM CLR 03/01 A3032 RMK AO2 SLP272 T00330011 10056 20033 51008
KGTU 201056Z AUTO 33007KT 10SM CLR 04/02 A3031 RMK AO2 SLP267 T00390017
KGTU 200956Z AUTO 32005KT 10SM CLR 04/02 A3031 RMK AO2 SLP266 T00440022
KGTU 200856Z AUTO 34007KT 10SM CLR 04/02 A3029 RMK AO2 SLP261 T00440022 50003
KGTU 200756Z AUTO 33005KT 10SM CLR 04/02 A3030 RMK AO2 SLP264 T00440022
KGTU 200656Z AUTO 33005KT 10SM CLR 06/03 A3029 RMK AO2 SLP259 T00560028
KGTU 200556Z AUTO 33004KT 10SM CLR 05/03 A3028 RMK AO2 SLP259 T00500028 10100 20044 401110044 51011
KGTU 200456Z AUTO 00000KT 10SM CLR 06/03 A3028 RMK AO2 SLP258 T00610033
KGTU 200356Z AUTO 34004KT 10SM CLR 07/04 A3027 RMK AO2 SLP254 T00670039
KGTU 200256Z 00000KT 10SM OVC040 08/04 A3025 RMK AO2 SLP247 T00830044 51018
KGTU 200156Z 36003KT 10SM BKN044 08/04 A3024 RMK AO2 SLP243 T00830044
KGTU 200056Z 36004KT 10SM SCT048 09/04 A3021 RMK AO2 SLP236 T00890039
KGTU 192356Z 35003KT 10SM BKN050 10/04 A3020 RMK AO2 SLP228 T01000044 10111 20089 53004
KGTU 192256Z 36005KT 10SM OVC040 11/04 A3019 RMK AO2 SLP226 T01060039
KGTU 192156Z 36004KT 10SM OVC038 11/03 A3018 RMK AO2 SLP222 T01060033
KGTU 192121Z 03005KT 10SM SCT024 BKN036 BKN044 11/03 A3018 RMK AO2
KGTU 192056Z 34006KT 10SM BKN024 OVC045 11/03 A3019 RMK AO2 SLP224 T01110033 56017
KGTU 191956Z 04006KT 10SM OVC024 11/03 A3019 RMK AO2 SLP226 T01060028
KGTU 191856Z 36005KT 10SM OVC024 09/02 A3021 RMK AO2 SLP235 T00940022
KGTU 191756Z 02008KT 10SM OVC026 09/02 A3024 RMK AO2 SLP241 60000 T00890017 10089 20056 58007
KGTU 191656Z 35007KT 10SM OVC021 08/02 A3027 RMK AO2 SLP255 T00780017
KGTU 191556Z 36006KT 10SM OVC021 07/02 A3027 RMK AO2 SLP255 T00720017
KGTU 191456Z 01005KT 10SM OVC019 07/02 A3026 RMK AO2 SLP250 60000 T00670017 53014
KGTU 191356Z 36006KT 10SM OVC019 06/01 A3024 RMK AO2 RAE03 SLP245 P0000 T00610011
KGTU 191256Z 36005KT 10SM -RA OVC021 06/02 A3023 RMK AO2 RAB18 SLP240 P0000 T00560017
KGTU 191156Z AUTO 34005KT 10SM OVC019 06/01 A3021 RMK AO2 SLP235 60001 70001 T00610011 10061 20050 55001
KGTU 191056Z AUTO 36005KT 10SM OVC021 06/02 A3020 RMK AO2 SLP231 T00610017
KGTU 190956Z AUTO 36005KT 10SM OVC021 06/02 A3021 RMK AO2 SLP232 T00610017